Overview Statistics Trail Chart Weather Telemetry Raw packets
 

This is the latest recevied telemetry packets stored in our database for station/object KQ6DI-4. If no packets are shown the sender has not sent any telemetry packets the latest 10 day(s).

Telemetry packets is used to share measurements like repeteater parameters, battery voltage, radiation readings (or any other measurements).

<< 1 2 3 4 >>
Time Volts* Current* Power* Value4* Value5*
1788579064 429 838 75.2 760 753
1788578464 429 841 75.5 771 762
1788577863 435 843 75.6 785 772
1788577565 440 842 75.6 790 779
1788577264 435 844 75.9 799 786
1788576664 440 846 76 816 799
1788576063 440 849 76.2 832 814
1788575765 440 851 76.3 842 823
1788575464 445 851 76.3 850 831
1788574864 440 852 76.4 870 845
1788574302 440 852 76.4 889 859
1788573966 440 852 76.4 899 867
1788573664 440 852 76.4 907 874
1788573063 435 852 76.6 929 886
1788572464 445 853 76.6 948 899
1788572165 440 853 76.6 958 905
1788571864 440 853 76.6 967 912
1788571264 445 852 76.7 984 925
1788570663 445 853 76.6 1000 936
1788570364 440 853 76.6 1010 939
1788570063 440 853 76.7 1018 943
1788569463 451 852 76.6 1032 960
1788568864 440 852 76.6 1048 965
1788568564 440 852 76.6 1055 970
1788568263 440 851 76.6 1062 980
*Used Equation Coefficients:
Volts: 0, 1, 0
Current: 0, 1, 0
Power: 0, 0.1, 0
Value4: 0, 1, 0
Value5: 0, 1, 0

  • The parameter names for the analog channels will be Value1, Value2, Value3 (up to Value5) if station has not sent a PARAM-packet that specifies the parameter names for each analog channel.
  • Each analog value is a decimal number between 000 and 255 (according to APRS specifications). The receiver use the telemetry equation coefficientsto to restore the original sensor values. If no EQNS-packet with equation coefficients is sent we will show the values as is (this corresponds to the equation coefficients a=0, b=1 and c=0).
    The sent equation coefficients is used in the equation: a * value2 + b * value + c.
  • The units for the analog values will not be shown if station has not sent a UNIT-packet specifying what unit's to use.
  • The parameter names for the digital bits will be Bit1, Bit2, Bit3 (up to Bit8) if station has not sent a PARAM-packet that specifies the parameter names for each digital bit.
  • All bit labels will be named "On" if station has not sent a UNIT-packet that specifies the label of each bit.
  • A bit is considered to be On when the bit is 1 if station has not sent a BITS-packet that specifies another "Bit sense" (a BITS-packet specify the state of the bits that match the BIT labels)